Time;durP1;ratioP1;P1;durP2;ratioP2;P2;SDS_P1;SDS_P2;PMS_P1;PMS_P2;Temp;Humidity;BMP_temperature;BMP_pressure;BME280_temperature;BME280_humidity;BME280_pressure;Samples;Min_cycle;Max_cycle;Signal;HPM_P1;HPM_P2
2022/08/28 00:01:09;;;;;;;17.40;6.20;;;14.60;99.90;;;;;;5065145;28;20212;-78
2022/08/28 00:03:37;;;;;;;13.63;6.20;;;14.60;99.90;;;;;;5081530;28;20322;-79
2022/08/28 00:06:04;;;;;;;12.83;6.10;;;14.50;99.90;;;;;;5081027;28;20231;-78
2022/08/28 00:08:32;;;;;;;15.03;6.13;;;14.50;99.90;;;;;;5063130;28;20212;-78
2022/08/28 00:10:59;;;;;;;12.13;6.67;;;14.40;99.90;;;;;;5064864;28;20624;-78
2022/08/28 00:13:30;;;;;;;13.57;5.93;;;14.40;99.90;;;;;;5081658;28;20586;-79
2022/08/28 00:16:05;;;;;;;13.13;5.93;;;14.40;99.90;;;;;;5079308;28;20215;-80
2022/08/28 00:18:33;;;;;;;15.23;6.83;;;14.40;99.90;;;;;;5070195;28;20766;-79
2022/08/28 00:21:10;;;;;;;12.37;6.10;;;14.70;99.90;;;;;;5082458;28;20219;-79
2022/08/28 00:23:42;;;;;;;12.57;6.27;;;14.40;99.90;;;;;;5063466;28;20535;-78
2022/08/28 00:27:51;;;;;;;13.60;6.60;;;14.30;99.90;;;;;;5068799;28;20204;-78
2022/08/28 00:28:58;;;;;;;13.17;5.67;;;14.30;99.90;;;;;;5081462;28;20318;-79
2022/08/28 00:31:26;;;;;;;13.90;6.67;;;14.60;99.90;;;;;;5059501;28;20739;-77
2022/08/28 00:33:53;;;;;;;13.73;6.50;;;14.30;99.90;;;;;;5067708;28;20660;-80
2022/08/28 00:36:21;;;;;;;12.77;5.87;;;13.60;99.90;;;;;;5068093;28;20306;-78
2022/08/28 00:38:48;;;;;;;11.20;5.70;;;14.80;99.90;;;;;;5064773;28;20208;-77
2022/08/28 00:41:16;;;;;;;11.57;6.07;;;14.20;99.90;;;;;;5082319;28;20220;-77
2022/08/28 00:44:03;;;;;;;18.90;6.17;;;14.30;99.90;;;;;;5078441;28;20774;-77
2022/08/28 00:46:30;;;;;;;13.00;5.97;;;14.20;99.90;;;;;;5080948;28;20210;-79
2022/08/28 00:48:57;;;;;;;11.87;5.23;;;14.20;99.90;;;;;;5067536;28;20218;-79
2022/08/28 00:54:12;;;;;;;12.73;6.10;;;14.10;99.90;;;;;;5095463;28;20200;-79
2022/08/28 00:56:40;;;;;;;9.63;5.20;;;14.10;99.90;;;;;;5086712;28;20204;-79
2022/08/28 00:59:13;;;;;;;14.50;5.70;;;14.10;99.90;;;;;;5077860;28;20207;-80
2022/08/28 01:01:42;;;;;;;14.07;5.87;;;14.10;99.90;;;;;;5084749;28;20210;-80
2022/08/28 01:04:15;;;;;;;15.30;5.93;;;14.10;99.90;;;;;;5077666;28;20214;-77
2022/08/28 01:06:45;;;;;;;9.67;5.47;;;14.10;99.90;;;;;;5071480;28;20698;-78
2022/08/28 01:09:13;;;;;;;12.80;5.50;;;14.00;99.90;;;;;;5080491;28;20219;-79
2022/08/28 01:11:48;;;;;;;12.20;6.20;;;14.00;99.90;;;;;;5077424;28;20207;-78
2022/08/28 01:14:21;;;;;;;10.17;5.87;;;14.00;99.90;;;;;;5085408;28;20249;-77
2022/08/28 01:16:59;;;;;;;13.73;6.63;;;13.90;99.90;;;;;;5080805;28;20668;-78
2022/08/28 01:19:40;;;;;;;13.07;6.20;;;13.90;99.90;;;;;;5071210;28;20211;-80
2022/08/28 01:22:21;;;;;;;10.90;5.97;;;14.40;99.90;;;;;;5087851;28;20215;-78
2022/08/28 01:24:58;;;;;;;11.53;5.73;;;13.30;99.90;;;;;;5075963;28;20546;-80
2022/08/28 01:27:26;;;;;;;13.30;5.87;;;;;;;;;;5072342;28;20246;-77
2022/08/28 01:29:54;;;;;;;10.13;5.80;;;13.80;99.90;;;;;;5074106;28;20661;-79
2022/08/28 01:32:37;;;;;;;12.07;5.80;;;13.80;99.90;;;;;;5089289;28;20242;-81
2022/08/28 01:35:14;;;;;;;10.83;5.73;;;13.80;99.90;;;;;;5075480;28;20910;-79
2022/08/28 01:37:44;;;;;;;12.43;5.93;;;13.80;99.90;;;;;;5082385;28;20365;-78
2022/08/28 01:40:16;;;;;;;20.13;6.83;;;13.80;99.90;;;;;;5078033;28;20264;-78
2022/08/28 01:42:44;;;;;;;10.50;6.30;;;13.80;99.90;;;;;;5094496;28;20225;-78
2022/08/28 01:45:14;;;;;;;9.93;6.23;;;13.80;99.90;;;;;;5085744;28;20485;-77
2022/08/28 01:47:44;;;;;;;15.10;6.13;;;13.80;99.90;;;;;;5091435;28;20242;-78
2022/08/28 01:50:16;;;;;;;13.77;5.90;;;13.70;99.90;;;;;;5077363;28;20196;-79
2022/08/28 01:52:45;;;;;;;9.83;6.13;;;13.70;99.90;;;;;;5089453;28;20281;-78
2022/08/28 01:55:17;;;;;;;11.10;5.63;;;13.70;99.90;;;;;;5076690;28;20263;-80
2022/08/28 01:57:52;;;;;;;13.57;6.43;;;13.70;99.90;;;;;;5084038;28;20273;-80
2022/08/28 02:00:26;;;;;;;11.43;5.13;;;13.70;99.90;;;;;;5077189;28;20203;-79
2022/08/28 02:02:57;;;;;;;9.53;5.17;;;13.60;99.90;;;;;;5079574;28;20235;-80
2022/08/28 02:05:29;;;;;;;15.70;6.47;;;13.70;99.90;;;;;;5069871;28;20218;-79
2022/08/28 02:07:58;;;;;;;9.67;5.27;;;13.60;99.90;;;;;;5079710;28;20216;-80
2022/08/28 02:10:28;;;;;;;12.43;5.77;;;13.60;99.90;;;;;;5075212;28;20203;-76
2022/08/28 02:12:56;;;;;;;13.80;6.10;;;13.60;99.90;;;;;;5076498;28;20199;-79
2022/08/28 02:15:26;;;;;;;10.23;5.47;;;13.60;99.90;;;;;;5080676;28;20208;-79
2022/08/28 02:17:54;;;;;;;16.83;6.50;;;13.60;99.90;;;;;;5069024;28;20241;-80
2022/08/28 02:20:23;;;;;;;12.00;5.43;;;13.50;99.90;;;;;;5081214;28;20211;-77
2022/08/28 02:22:51;;;;;;;14.40;6.17;;;13.50;99.90;;;;;;5065510;28;20234;-79
2022/08/28 02:25:18;;;;;;;10.33;5.93;;;13.50;99.90;;;;;;5091510;28;20207;-80
2022/08/28 02:27:46;;;;;;;9.87;5.80;;;13.50;99.90;;;;;;5066986;28;20227;-80
2022/08/28 02:30:20;;;;;;;11.77;6.20;;;13.50;99.90;;;;;;5086971;28;20218;-80
2022/08/28 02:32:48;;;;;;;8.40;5.13;;;13.50;99.90;;;;;;5091989;28;20667;-80
2022/08/28 02:35:18;;;;;;;10.90;6.40;;;13.40;99.90;;;;;;5092810;28;20199;-78
2022/08/28 02:37:45;;;;;;;9.60;5.57;;;13.40;99.90;;;;;;5083106;28;20242;-79
2022/08/28 02:40:16;;;;;;;10.20;5.47;;;13.40;99.90;;;;;;5074128;28;20214;-80
2022/08/28 02:42:45;;;;;;;10.90;5.70;;;13.40;99.90;;;;;;5094594;28;20223;-80
2022/08/28 02:45:20;;;;;;;12.93;6.93;;;13.40;99.90;;;;;;5080313;28;20223;-80
2022/08/28 02:47:51;;;;;;;11.00;6.00;;;13.30;99.90;;;;;;5077567;28;20214;-78
2022/08/28 02:50:19;;;;;;;15.00;6.03;;;13.30;99.90;;;;;;5087386;28;20202;-79
2022/08/28 02:52:47;;;;;;;12.00;6.13;;;13.30;99.90;;;;;;5077819;28;20223;-80
2022/08/28 02:55:17;;;;;;;11.63;5.77;;;13.30;99.90;;;;;;5094345;28;20209;-80
2022/08/28 02:57:47;;;;;;;12.07;6.17;;;13.30;99.90;;;;;;5078829;28;20215;-79
2022/08/28 03:00:18;;;;;;;11.90;6.03;;;13.20;99.90;;;;;;5073864;28;20632;-79
2022/08/28 03:02:46;;;;;;;13.87;5.93;;;13.20;99.90;;;;;;5094863;28;20780;-80
2022/08/28 03:05:20;;;;;;;10.37;5.77;;;13.20;99.90;;;;;;5077873;28;20583;-80
2022/08/28 03:07:49;;;;;;;12.73;6.20;;;13.20;99.90;;;;;;5082930;28;20214;-81
2022/08/28 03:10:17;;;;;;;13.70;6.40;;;13.20;99.90;;;;;;5079603;28;20237;-79
2022/08/28 03:12:45;;;;;;;16.60;6.60;;;13.10;99.90;;;;;;5079192;28;20223;-80
2022/08/28 03:15:13;;;;;;;10.47;5.67;;;13.10;99.90;;;;;;5082903;28;20222;-79
2022/08/28 03:17:40;;;;;;;14.40;6.33;;;13.10;99.90;;;;;;5094953;28;20279;-80
2022/08/28 03:20:11;;;;;;;11.33;5.33;;;13.10;99.90;;;;;;5077314;28;20231;-80
2022/08/28 03:25:24;;;;;;;11.73;5.83;;;13.10;99.90;;;;;;5093945;28;20227;-79
2022/08/28 03:27:52;;;;;;;10.03;5.67;;;13.10;99.90;;;;;;5079222;28;20238;-78
2022/08/28 03:30:21;;;;;;;10.97;5.23;;;13.10;99.90;;;;;;5087096;28;20207;-78
2022/08/28 03:32:49;;;;;;;13.20;5.43;;;13.10;99.90;;;;;;5070222;28;20222;-79
2022/08/28 03:35:17;;;;;;;10.00;5.50;;;13.00;99.90;;;;;;5073532;28;20215;-80
2022/08/28 03:37:44;;;;;;;11.77;5.87;;;13.10;99.90;;;;;;5083676;28;20223;-78
2022/08/28 03:40:13;;;;;;;11.17;5.60;;;13.00;99.90;;;;;;5071063;28;20654;-81
2022/08/28 03:42:40;;;;;;;12.23;6.00;;;13.00;99.90;;;;;;5078602;28;20237;-79
2022/08/28 03:45:13;;;;;;;14.20;6.30;;;13.00;99.90;;;;;;5083679;28;20216;-80
2022/08/28 03:47:43;;;;;;;13.93;5.83;;;13.00;99.90;;;;;;5076140;28;20217;-80
2022/08/28 03:50:12;;;;;;;10.83;5.67;;;13.00;99.90;;;;;;5090980;28;20218;-79
2022/08/28 03:52:40;;;;;;;9.40;5.90;;;13.00;99.90;;;;;;5091427;28;20309;-80
2022/08/28 03:55:10;;;;;;;9.63;5.27;;;13.00;99.90;;;;;;5091270;28;20919;-81
2022/08/28 03:57:39;;;;;;;16.07;6.13;;;13.00;99.90;;;;;;5085517;28;20628;-80
2022/08/28 04:00:10;;;;;;;9.80;5.33;;;13.00;99.90;;;;;;5087850;28;20238;-80
2022/08/28 04:02:40;;;;;;;9.80;5.80;;;13.00;99.90;;;;;;5071179;28;20218;-79
2022/08/28 04:05:10;;;;;;;10.67;5.27;;;13.00;99.90;;;;;;5066436;28;20283;-80
2022/08/28 04:07:38;;;;;;;13.10;5.70;;;13.00;99.90;;;;;;5075549;28;20642;-79
2022/08/28 04:10:07;;;;;;;13.03;5.27;;;13.00;99.90;;;;;;5074099;28;20203;-80
2022/08/28 04:12:36;;;;;;;12.87;5.70;;;13.00;99.90;;;;;;5099493;28;20747;-80
2022/08/28 04:15:04;;;;;;;10.27;5.43;;;13.00;99.90;;;;;;5083208;28;20203;-78
2022/08/28 04:17:33;;;;;;;11.67;6.27;;;13.00;99.90;;;;;;5089004;28;20321;-80
2022/08/28 04:20:02;;;;;;;12.87;5.57;;;13.00;99.90;;;;;;5083061;28;20210;-79
2022/08/28 04:22:29;;;;;;;14.13;5.03;;;12.90;99.90;;;;;;5092492;28;20226;-81
2022/08/28 04:24:57;;;;;;;9.57;5.43;;;13.00;99.90;;;;;;5088531;28;20242;-80
2022/08/28 04:27:24;;;;;;;9.70;4.90;;;13.00;99.90;;;;;;5084744;28;20685;-80
2022/08/28 04:29:52;;;;;;;16.53;5.90;;;12.90;99.90;;;;;;5090265;28;20203;-78
2022/08/28 04:32:22;;;;;;;12.60;5.33;;;13.00;99.90;;;;;;5077418;28;20229;-80
2022/08/28 04:34:54;;;;;;;12.60;5.40;;;13.00;99.90;;;;;;5074107;28;20213;-81
2022/08/28 04:37:23;;;;;;;9.30;5.33;;;12.90;99.90;;;;;;5086163;28;20290;-83
2022/08/28 04:39:53;;;;;;;12.30;5.27;;;12.90;99.90;;;;;;5079839;28;20232;-81
2022/08/28 04:42:22;;;;;;;16.50;5.67;;;12.90;99.90;;;;;;5092230;28;20730;-78
2022/08/28 04:44:49;;;;;;;10.80;5.20;;;12.90;99.90;;;;;;5075447;28;20590;-80
2022/08/28 04:47:20;;;;;;;12.90;5.63;;;12.90;99.90;;;;;;5072395;28;20213;-80
2022/08/28 04:49:47;;;;;;;16.10;5.43;;;12.90;99.90;;;;;;5070160;28;20235;-80
2022/08/28 04:52:17;;;;;;;12.73;5.17;;;12.90;99.90;;;;;;5090591;28;20980;-79
2022/08/28 04:54:45;;;;;;;11.70;5.37;;;13.00;99.90;;;;;;5069891;28;20259;-79
2022/08/28 04:57:12;;;;;;;9.17;4.90;;;13.00;99.90;;;;;;5072605;28;20262;-80
2022/08/28 04:59:43;;;;;;;11.73;5.23;;;13.00;99.90;;;;;;5084367;28;20206;-80
2022/08/28 05:02:10;;;;;;;14.83;5.67;;;13.00;99.90;;;;;;5074059;28;20200;-78
2022/08/28 05:04:41;;;;;;;10.77;5.37;;;13.00;99.90;;;;;;5071428;28;20235;-79
2022/08/28 05:07:08;;;;;;;8.33;5.20;;;13.00;99.90;;;;;;5071317;28;20218;-81
2022/08/28 05:09:36;;;;;;;14.53;5.60;;;13.00;99.90;;;;;;5084483;28;20245;-79
2022/08/28 05:12:04;;;;;;;10.60;5.63;;;13.10;99.90;;;;;;5080361;28;20212;-81
2022/08/28 05:14:32;;;;;;;12.00;6.20;;;13.10;99.90;;;;;;5066734;28;20214;-80
2022/08/28 05:16:59;;;;;;;13.43;5.30;;;13.10;99.90;;;;;;5085739;28;20301;-80
2022/08/28 05:19:27;;;;;;;12.20;5.00;;;13.10;99.90;;;;;;5081140;28;20211;-81
2022/08/28 05:21:55;;;;;;;11.33;5.43;;;13.20;99.90;;;;;;5076536;28;20705;-78
2022/08/28 05:24:23;;;;;;;13.20;4.97;;;13.20;99.90;;;;;;5090393;28;20230;-79
2022/08/28 05:26:50;;;;;;;10.97;4.67;;;13.20;99.90;;;;;;5063276;28;20779;-79
2022/08/28 05:29:19;;;;;;;10.47;4.87;;;13.30;99.90;;;;;;5045663;28;20297;-80
2022/08/28 05:31:55;;;;;;;11.13;4.77;;;13.30;99.90;;;;;;5054057;28;20239;-81
2022/08/28 05:34:23;;;;;;;14.50;5.60;;;13.40;99.90;;;;;;5052372;28;20209;-79
2022/08/28 05:36:50;;;;;;;12.17;5.17;;;13.40;99.90;;;;;;5055256;28;20224;-80
2022/08/28 05:39:18;;;;;;;9.43;4.83;;;13.40;99.90;;;;;;5051922;28;20221;-80
2022/08/28 05:41:52;;;;;;;8.90;4.50;;;13.50;99.90;;;;;;5045814;28;20319;-81
2022/08/28 05:44:20;;;;;;;10.70;4.87;;;13.50;99.90;;;;;;5054324;28;20231;-80
2022/08/28 05:46:48;;;;;;;10.27;4.67;;;13.60;99.90;;;;;;5048029;28;20209;-79
2022/08/28 05:49:17;;;;;;;12.67;5.23;;;13.60;99.90;;;;;;5046845;28;20209;-80
2022/08/28 05:51:44;;;;;;;10.07;5.00;;;13.70;99.90;;;;;;5056228;28;20231;-79
2022/08/28 05:54:13;;;;;;;7.87;4.33;;;13.80;99.90;;;;;;5053629;28;20258;-80
2022/08/28 05:56:43;;;;;;;7.17;4.30;;;13.80;99.90;;;;;;5049084;28;20201;-81
2022/08/28 05:59:13;;;;;;;15.47;5.23;;;14.00;99.90;;;;;;5053065;28;20197;-78
2022/08/28 06:01:44;;;;;;;11.13;4.90;;;14.10;99.90;;;;;;5050477;28;20534;-80
2022/08/28 06:04:24;;;;;;;11.90;4.50;;;14.00;99.90;;;;;;5052835;28;20697;-80
2022/08/28 06:06:52;;;;;;;11.17;5.00;;;14.10;99.90;;;;;;5052879;28;20227;-79
2022/08/28 06:09:25;;;;;;;12.40;4.67;;;14.30;99.90;;;;;;5053673;28;20213;-79
2022/08/28 06:11:59;;;;;;;11.93;3.83;;;14.30;99.90;;;;;;5054080;28;20202;-78
2022/08/28 06:14:28;;;;;;;10.53;4.10;;;14.40;99.90;;;;;;5050885;28;20220;-80
2022/08/28 06:16:57;;;;;;;9.43;3.97;;;14.60;99.90;;;;;;5055364;28;20197;-80
2022/08/28 06:19:26;;;;;;;8.70;3.87;;;14.80;99.90;;;;;;5058695;28;20219;-77
2022/08/28 06:21:59;;;;;;;7.50;4.40;;;15.20;99.90;;;;;;5056337;28;20225;-81
2022/08/28 06:24:33;;;;;;;9.97;3.90;;;15.40;99.90;;;;;;5052005;28;20244;-80
2022/08/28 06:27:00;;;;;;;8.10;3.13;;;15.70;99.90;;;;;;5050710;28;20312;-80
2022/08/28 06:29:28;;;;;;;9.27;3.38;;;16.70;99.90;;;;;;5073079;28;20209;-80
2022/08/28 06:31:58;;;;;;;9.20;2.80;;;17.90;99.90;;;;;;5078354;28;20196;-82
2022/08/28 06:34:27;;;;;;;10.63;3.28;;;19.20;99.90;;;;;;5071486;28;20629;-81
2022/08/28 06:36:55;;;;;;;6.88;2.75;;;21.00;99.90;;;;;;5075079;28;20221;-81
2022/08/28 06:39:22;;;;;;;5.60;2.92;;;21.40;99.90;;;;;;5074085;28;20207;-80
2022/08/28 06:41:52;;;;;;;6.15;2.30;;;22.20;99.90;;;;;;5071875;28;20201;-80
2022/08/28 06:44:20;;;;;;;6.57;2.50;;;23.10;99.90;;;;;;5070752;28;20216;-80
2022/08/28 06:46:49;;;;;;;6.15;1.90;;;;;;;;;;5074690;28;20577;-82
2022/08/28 06:49:17;;;;;;;6.50;2.20;;;24.50;99.90;;;;;;5075935;28;20204;-80
2022/08/28 06:51:44;;;;;;;4.93;2.20;;;25.00;99.90;;;;;;5079507;28;20744;-83
2022/08/28 06:54:11;;;;;;;6.20;2.22;;;25.50;99.90;;;;;;5075111;28;20288;-81
2022/08/28 06:56:39;;;;;;;8.63;2.58;;;26.00;99.90;;;;;;5068934;28;20228;-82
2022/08/28 06:59:06;;;;;;;5.40;2.03;;;26.40;99.90;;;;;;5075170;28;20303;-81
2022/08/28 07:01:35;;;;;;;5.10;2.30;;;26.70;99.90;;;;;;5064875;28;20200;-79
2022/08/28 07:04:07;;;;;;;4.97;1.95;;;26.90;99.90;;;;;;5072812;28;20234;-80
2022/08/28 07:06:39;;;;;;;4.78;2.03;;;27.00;99.90;;;;;;5072294;28;20288;-80
2022/08/28 07:09:11;;;;;;;5.95;2.30;;;27.10;99.90;;;;;;5070391;28;20310;-80
2022/08/28 07:11:39;;;;;;;6.10;2.15;;;27.30;99.90;;;;;;5069768;28;20216;-80
2022/08/28 07:14:08;;;;;;;6.75;2.08;;;27.40;99.90;;;;;;5071473;28;20224;-82
2022/08/28 07:16:37;;;;;;;5.68;1.83;;;27.40;99.90;;;;;;5070168;28;20227;-80
2022/08/28 07:19:10;;;;;;;7.63;2.38;;;27.50;99.90;;;;;;5071571;28;20201;-81
2022/08/28 07:21:42;;;;;;;8.32;2.05;;;27.50;99.90;;;;;;5072042;28;20225;-81
2022/08/28 07:24:12;;;;;;;6.82;2.25;;;27.60;99.90;;;;;;5074135;28;20232;-80
2022/08/28 07:26:42;;;;;;;7.28;2.10;;;27.90;99.90;;;;;;5075505;28;20292;-80
2022/08/28 07:29:10;;;;;;;6.18;1.98;;;28.10;99.90;;;;;;5076327;28;20200;-81
2022/08/28 07:31:46;;;;;;;4.95;1.70;;;28.10;99.90;;;;;;5080582;28;21046;-81
2022/08/28 07:34:15;;;;;;;5.70;2.08;;;28.90;99.10;;;;;;5072589;28;20229;-81
2022/08/28 07:36:43;;;;;;;7.78;1.60;;;28.50;98.70;;;;;;5067190;28;20225;-81
2022/08/28 07:39:14;;;;;;;5.90;2.13;;;28.40;97.90;;;;;;5065589;28;20242;-81
2022/08/28 07:41:41;;;;;;;4.35;1.80;;;28.40;97.70;;;;;;5069912;28;20714;-80
2022/08/28 07:47:06;;;;;;;6.55;1.70;;;28.50;97.10;;;;;;5063086;28;20221;-79
2022/08/28 07:49:38;;;;;;;4.45;2.00;;;28.30;96.90;;;;;;5091682;28;20200;-81
2022/08/28 07:52:07;;;;;;;4.50;1.88;;;28.30;96.80;;;;;;5092406;28;20216;-80
2022/08/28 07:54:35;;;;;;;4.95;1.55;;;28.40;96.40;;;;;;5083596;28;20216;-82
2022/08/28 07:57:03;;;;;;;2.97;1.60;;;28.40;95.80;;;;;;5065402;28;20744;-74
2022/08/28 07:59:30;;;;;;;10.05;2.33;;;28.50;95.70;;;;;;5050278;28;20212;-74
2022/08/28 08:02:04;;;;;;;4.60;1.98;;;28.40;95.50;;;;;;5060994;28;20204;-74
2022/08/28 08:04:31;;;;;;;6.35;2.08;;;28.30;95.30;;;;;;5079535;28;20793;-74
2022/08/28 08:07:00;;;;;;;5.90;1.85;;;28.30;95.00;;;;;;5073395;28;20216;-73
2022/08/28 08:09:27;;;;;;;4.70;2.13;;;28.20;94.70;;;;;;5079750;28;20210;-72
2022/08/28 08:11:55;;;;;;;4.45;1.73;;;27.80;94.50;;;;;;5075975;28;20262;-73
2022/08/28 08:14:23;;;;;;;5.55;1.83;;;27.10;94.70;;;;;;5060758;28;20292;-73
2022/08/28 08:16:52;;;;;;;7.25;1.90;;;26.70;95.10;;;;;;5060742;28;20216;-73
2022/08/28 08:19:19;;;;;;;5.40;1.40;;;26.60;95.20;;;;;;5065100;28;20207;-71
2022/08/28 08:21:50;;;;;;;7.10;1.92;;;26.70;95.20;;;;;;5083461;28;20215;-72
2022/08/28 08:24:25;;;;;;;4.10;1.52;;;26.20;95.30;;;;;;5081016;28;20317;-72
2022/08/28 08:26:55;;;;;;;3.63;1.45;;;26.10;95.80;;;;;;5056592;28;20238;-74
2022/08/28 08:29:34;;;;;;;4.50;1.80;;;25.90;96.20;;;;;;5080049;28;20257;-74
2022/08/28 08:32:05;;;;;;;3.58;1.63;;;25.80;95.90;;;;;;5073480;28;20283;-74
2022/08/28 08:34:34;;;;;;;6.82;2.10;;;;;;;;;;5078865;28;20208;-73
2022/08/28 08:37:01;;;;;;;4.82;1.75;;;25.30;96.00;;;;;;5076409;28;20282;-74
2022/08/28 08:39:28;;;;;;;3.42;1.80;;;;;;;;;;5063992;28;20197;-73
2022/08/28 08:41:59;;;;;;;5.05;2.00;;;24.50;97.00;;;;;;5063098;28;20695;-72
2022/08/28 08:44:39;;;;;;;4.45;1.20;;;24.30;97.40;;;;;;5075162;28;20232;-73
2022/08/28 08:47:30;;;;;;;6.15;1.67;;;24.10;97.60;;;;;;5055859;28;20223;-72
2022/08/28 08:50:01;;;;;;;2.40;1.30;;;24.00;97.50;;;;;;5078323;28;20214;-74
2022/08/28 08:52:50;;;;;;;3.95;1.50;;;23.70;97.90;;;;;;5076152;28;20627;-73
2022/08/28 08:55:31;;;;;;;4.13;2.03;;;23.50;98.60;;;;;;5078352;28;20257;-73
2022/08/28 08:58:12;;;;;;;3.90;1.70;;;23.40;98.80;;;;;;5080252;28;20211;-72
2022/08/28 09:00:49;;;;;;;4.50;1.60;;;23.40;99.20;;;;;;5080493;28;20759;-73
2022/08/28 09:03:26;;;;;;;3.15;1.50;;;23.40;99.30;;;;;;5076494;28;20812;-71
2022/08/28 09:06:04;;;;;;;3.67;1.23;;;23.50;99.50;;;;;;5077521;28;20659;-73
2022/08/28 09:08:38;;;;;;;3.95;1.60;;;23.90;99.30;;;;;;5079556;28;20256;-73
2022/08/28 09:11:41;;;;;;;4.88;1.40;;;24.10;98.40;;;;;;5077799;28;20215;-73
2022/08/28 09:14:12;;;;;;;5.40;1.58;;;24.20;98.00;;;;;;5051914;28;20199;-74
2022/08/28 09:16:44;;;;;;;2.83;1.48;;;24.30;97.90;;;;;;5080042;28;20217;-72
2022/08/28 09:19:16;;;;;;;3.92;1.30;;;24.30;97.20;;;;;;5078945;28;20214;-74
2022/08/28 09:21:45;;;;;;;5.95;1.77;;;24.30;96.70;;;;;;5076756;28;20228;-70
2022/08/28 09:24:32;;;;;;;3.55;1.42;;;24.10;96.20;;;;;;5058081;28;20245;-73
2022/08/28 09:27:27;;;;;;;2.47;1.40;;;23.90;96.70;;;;;;5078478;28;20289;-74
2022/08/28 09:30:00;;;;;;;2.90;1.33;;;24.00;96.80;;;;;;5076677;28;20223;-72
2022/08/28 09:32:43;;;;;;;4.95;1.63;;;24.00;97.10;;;;;;5075365;28;20208;-72
2022/08/28 09:35:31;;;;;;;5.82;1.88;;;24.10;97.30;;;;;;5078787;28;20211;-72
2022/08/28 09:38:19;;;;;;;4.00;1.58;;;24.50;97.00;;;;;;5076752;28;20292;-73
2022/08/28 09:43:35;;;;;;;5.72;1.88;;;24.30;96.80;;;;;;5083257;28;20200;-72
2022/08/28 09:46:04;;;;;;;4.07;1.40;;;24.20;96.90;;;;;;5049353;28;20228;-70
2022/08/28 09:48:35;;;;;;;2.97;1.55;;;24.00;96.60;;;;;;5076997;28;20204;-72
2022/08/28 09:51:07;;;;;;;5.05;1.42;;;23.70;97.20;;;;;;5076504;28;20204;-73
2022/08/28 09:53:51;;;;;;;5.13;1.48;;;23.40;97.60;;;;;;5077159;28;20196;-73
2022/08/28 09:56:27;;;;;;;3.53;1.60;;;23.30;98.50;;;;;;5075444;28;20258;-73
2022/08/28 09:58:58;;;;;;;4.00;1.70;;;23.70;99.10;;;;;;5060255;28;20664;-73
2022/08/28 10:01:33;;;;;;;4.22;1.70;;;23.70;98.90;;;;;;5082071;28;20625;-74
2022/08/28 10:04:30;;;;;;;4.63;1.58;;;23.80;98.60;;;;;;5075823;28;20239;-73
2022/08/28 10:07:02;;;;;;;4.47;1.40;;;23.80;98.70;;;;;;5077111;28;20713;-72
2022/08/28 10:10:01;;;;;;;7.63;1.77;;;24.00;98.40;;;;;;5078346;28;20691;-74
2022/08/28 10:13:04;;;;;;;4.13;1.65;;;24.40;97.90;;;;;;5069792;28;20313;-73
2022/08/28 10:15:40;;;;;;;2.28;1.42;;;24.70;97.40;;;;;;5076903;28;20205;-73
2022/08/28 10:18:33;;;;;;;3.90;1.40;;;24.90;97.00;;;;;;5069659;28;20758;-75
2022/08/28 10:21:44;;;;;;;7.10;1.52;;;25.30;96.00;;;;;;5077762;28;20562;-76
2022/08/28 10:24:24;;;;;;;4.40;1.88;;;25.50;96.20;;;;;;5077213;28;20211;-75
2022/08/28 10:27:03;;;;;;;3.30;1.63;;;25.50;96.00;;;;;;5078279;28;20232;-74
2022/08/28 10:30:04;;;;;;;4.40;1.50;;;25.60;95.40;;;;;;5080788;28;20593;-73
2022/08/28 10:33:10;;;;;;;3.10;1.38;;;25.60;95.20;;;;;;5079905;28;20214;-73
2022/08/28 10:36:01;;;;;;;4.40;1.65;;;25.40;94.60;;;;;;5078570;28;20212;-75
2022/08/28 10:38:57;;;;;;;3.83;1.48;;;25.10;94.90;;;;;;5077062;28;20207;-73
2022/08/28 10:41:39;;;;;;;3.67;1.33;;;24.70;95.50;;;;;;5077192;28;20204;-74
2022/08/28 10:44:08;;;;;;;3.55;1.50;;;24.30;96.10;;;;;;5078983;28;20202;-73
2022/08/28 10:46:39;;;;;;;4.25;1.67;;;24.00;96.90;;;;;;5076763;28;20342;-73
2022/08/28 10:49:13;;;;;;;4.28;1.38;;;24.00;97.60;;;;;;5077088;28;20598;-73
2022/08/28 10:51:46;;;;;;;3.58;1.40;;;24.10;97.00;;;;;;5077669;28;20229;-74
2022/08/28 10:54:44;;;;;;;3.72;1.60;;;24.20;95.60;;;;;;5076251;28;20219;-74
2022/08/28 10:57:26;;;;;;;4.60;1.70;;;24.30;94.90;;;;;;5081572;28;20629;-74
2022/08/28 10:59:53;;;;;;;2.90;1.42;;;24.40;94.90;;;;;;5075533;28;20207;-73
2022/08/28 11:02:23;;;;;;;3.85;1.60;;;24.50;94.80;;;;;;5075666;28;20200;-73
2022/08/28 11:04:51;;;;;;;3.67;1.60;;;24.50;94.90;;;;;;5074570;28;20664;-74
2022/08/28 11:07:41;;;;;;;2.95;1.40;;;24.50;95.00;;;;;;5072166;28;20518;-73
2022/08/28 11:10:20;;;;;;;4.57;1.77;;;24.50;94.70;;;;;;5058324;28;20275;-73
2022/08/28 11:12:50;;;;;;;2.28;1.55;;;24.30;94.50;;;;;;5077350;28;20254;-74
2022/08/28 11:15:39;;;;;;;5.57;2.03;;;24.10;94.40;;;;;;5069139;28;20265;-74
2022/08/28 11:18:15;;;;;;;2.95;1.35;;;24.00;94.60;;;;;;5075250;28;20197;-74
2022/08/28 11:21:03;;;;;;;3.70;1.70;;;24.10;94.60;;;;;;5078789;28;20268;-73
2022/08/28 11:23:43;;;;;;;3.15;1.60;;;24.30;94.90;;;;;;5057665;28;20553;-73
2022/08/28 11:26:14;;;;;;;2.78;1.30;;;24.70;94.60;;;;;;5066112;28;20223;-74
2022/08/28 11:28:46;;;;;;;3.72;1.30;;;24.90;93.90;;;;;;5075004;28;20232;-75
2022/08/28 11:31:12;;;;;;;4.95;1.73;;;24.90;94.00;;;;;;5073759;28;20207;-73
2022/08/28 11:33:55;;;;;;;3.42;1.50;;;24.80;94.20;;;;;;5077052;28;20299;-74
2022/08/28 11:36:21;;;;;;;4.97;1.50;;;24.70;94.40;;;;;;5071213;28;20256;-74
2022/08/28 11:38:54;;;;;;;2.47;1.60;;;24.60;94.30;;;;;;5076538;28;20204;-75
2022/08/28 11:41:31;;;;;;;5.28;1.67;;;24.50;94.20;;;;;;5074698;28;20536;-74
2022/08/28 11:44:07;;;;;;;5.00;1.77;;;24.30;94.30;;;;;;5081590;28;20295;-75
2022/08/28 11:46:37;;;;;;;4.38;1.75;;;24.20;94.30;;;;;;5075075;28;20239;-73
2022/08/28 11:49:30;;;;;;;5.28;1.50;;;24.20;94.40;;;;;;5056443;28;20898;-74
2022/08/28 11:52:12;;;;;;;6.07;1.30;;;24.50;95.00;;;;;;5075182;28;20232;-75
2022/08/28 11:54:55;;;;;;;3.22;1.60;;;24.90;94.50;;;;;;5078660;28;20263;-75
2022/08/28 11:57:44;;;;;;;5.50;1.95;;;25.20;93.90;;;;;;5080593;28;20200;-74
2022/08/28 12:00:36;;;;;;;3.28;1.58;;;25.60;93.40;;;;;;5075035;28;20665;-74
2022/08/28 12:03:14;;;;;;;3.13;1.55;;;25.90;93.30;;;;;;5075123;28;20200;-75
2022/08/28 12:05:54;;;;;;;4.70;1.70;;;26.20;92.20;;;;;;5077701;28;20699;-74
2022/08/28 12:08:50;;;;;;;5.05;1.40;;;26.30;92.00;;;;;;5060722;28;20246;-75
2022/08/28 12:11:39;;;;;;;5.00;1.63;;;26.00;91.60;;;;;;5067385;28;20215;-74
2022/08/28 12:14:28;;;;;;;2.10;1.50;;;25.80;91.70;;;;;;5075434;28;20208;-75
2022/08/28 12:16:57;;;;;;;3.80;1.50;;;25.60;91.80;;;;;;5056675;28;20674;-75
2022/08/28 12:19:36;;;;;;;3.40;1.40;;;25.30;91.50;;;;;;5074304;28;20211;-74
2022/08/28 12:22:24;;;;;;;2.70;1.50;;;25.10;92.10;;;;;;5074487;28;20615;-75
2022/08/28 12:24:56;;;;;;;2.45;1.30;;;25.00;92.50;;;;;;5072099;28;20577;-75
2022/08/28 12:27:24;;;;;;;3.20;1.40;;;25.20;92.80;;;;;;5074166;28;20239;-73
2022/08/28 12:29:55;;;;;;;2.40;1.60;;;25.40;92.30;;;;;;5077864;28;20208;-75
2022/08/28 12:32:35;;;;;;;4.45;1.73;;;25.70;91.80;;;;;;5076397;28;20380;-74
2022/08/28 12:35:01;;;;;;;3.55;1.65;;;25.80;91.40;;;;;;5075910;28;20212;-74
2022/08/28 12:37:33;;;;;;;5.72;1.50;;;25.70;91.10;;;;;;5078256;28;20220;-74
2022/08/28 12:40:08;;;;;;;3.17;1.80;;;25.60;90.90;;;;;;5074833;28;20310;-74
2022/08/28 12:42:44;;;;;;;5.88;1.88;;;25.40;91.10;;;;;;5057575;28;20208;-74
2022/08/28 12:45:19;;;;;;;4.03;1.85;;;25.20;91.20;;;;;;5079851;28;20225;-74
2022/08/28 12:47:48;;;;;;;2.60;1.25;;;24.90;91.60;;;;;;5073378;28;20204;-73
2022/08/28 12:50:26;;;;;;;4.15;1.55;;;24.80;91.80;;;;;;5075882;28;20227;-74
2022/08/28 12:52:57;;;;;;;4.90;1.38;;;24.80;92.30;;;;;;5074951;28;20384;-74
2022/08/28 12:55:25;;;;;;;6.47;1.90;;;24.90;92.50;;;;;;5075746;28;20220;-74
2022/08/28 12:57:53;;;;;;;4.30;1.38;;;25.20;92.60;;;;;;5073839;28;20314;-72
2022/08/28 13:00:23;;;;;;;1.73;1.50;;;25.60;92.00;;;;;;5071467;28;20499;-74
2022/08/28 13:02:53;;;;;;;2.72;1.30;;;25.50;91.40;;;;;;5074599;28;20253;-74
2022/08/28 13:05:26;;;;;;;3.75;1.65;;;25.30;91.10;;;;;;5072985;28;20224;-74
2022/08/28 13:07:54;;;;;;;5.30;1.80;;;25.10;91.30;;;;;;5077679;28;20548;-72
2022/08/28 13:10:30;;;;;;;5.72;1.60;;;24.90;91.30;;;;;;5075505;28;20261;-73
2022/08/28 13:13:01;;;;;;;3.20;1.48;;;24.80;91.50;;;;;;5075703;28;20671;-73
2022/08/28 13:16:07;;;;;;;4.57;1.95;;;24.70;91.60;;;;;;5077440;28;20203;-73
2022/08/28 13:18:44;;;;;;;1.75;1.40;;;24.60;92.10;;;;;;5042182;28;20208;-73
2022/08/28 13:21:17;;;;;;;13.50;12.13;;;24.50;91.50;;;;;;5077161;28;20823;-72
2022/08/28 13:24:20;;;;;;;12.85;11.48;;;24.40;91.60;;;;;;5078157;28;20207;-74